Terminal Aerodrome Forecast
Issued by NWS Sterling, VA

Current Version | Previous Version | Text Only | Print | Product List | Glossary Off
Versions: 1 2 3 4 5 6 7 8 9 10 11 12 13 14 15 16 17 18 19 20 21 22 23 24 25

000
FTUS41 KLWX 220104 AAA
TAFMRB
TAF AMD
KMRB 220104Z 2201/2224 VRB03KT 1/4SM FG OVC002
     FM221500 06004KT 2SM BR OVC003
     FM221800 06005KT 3SM -RA BR OVC003
     FM222100 06006KT 1SM -RA BR OVC003=

USA.gov is the U.S. government's official web portal to all federal, state and local government web resources and services.